Decoded Metar for LEJR (JEREZ in SPAIN) (IATA:XRY) | Meteo·Mobile Aviation Weather
aviador You're here:

LEJR Decoded Metar

JEREZ in SPAIN
Report Time2019-03-23 08:00:00
UTC Time2019-03-23 08:16:09
Flight Rules vfr VFR
Wind060° at 07 kt
W.Decomp.*RWY 02: 5.2 kt HW 4.7 kt RCW
W.Rank060° ranks 34
Current wind is above 060° avg. (4.9)
Visibility9999 m
Phenomena:N/A
Clouds:N/A
Expected CloudBase > 2,800 ft AGL from Temp-Dew spread
CeilingNone
Temp14°C (ISA -1)
Dew Point07°C (63% RH)
AAT10.8°C
QNH1020 hPa
Density Alt-98 ft
Elevation98 ft
Report Wrong Elevation
Raw Report
LEJR 230800Z 06007KT 020V080 CAVOK 14/07 Q1020=

Extra information for LEJR:More info

Metar Taf Metar & Taf Last 4 Metars F.Rules Stats Wind Profile Meteogram Temp Stats Airport Information Weather charts Add Link Nearby VenuesMetar ALERT Operation Metar Decoded Social comments